createdAt,value
2023-03-10T00:02:16.781Z,8.30
2023-03-10T00:04:51.245Z,7.37
2023-03-10T00:07:22.030Z,4.27
2023-03-10T00:09:57.570Z,12.23
2023-03-10T00:12:28.900Z,7.10
2023-03-10T00:14:59.553Z,9.90
2023-03-10T00:17:30.599Z,10.07
2023-03-10T00:20:02.773Z,13.10
2023-03-10T00:22:34.581Z,15.57
2023-03-10T00:25:06.657Z,14.07
2023-03-10T00:27:37.651Z,9.67
2023-03-10T00:30:08.697Z,4.73
2023-03-10T00:32:39.446Z,13.57
2023-03-10T00:35:14.889Z,12.70
2023-03-10T00:37:45.810Z,7.53
2023-03-10T00:40:17.277Z,7.83
2023-03-10T00:42:48.133Z,7.10
2023-03-10T00:45:18.651Z,8.40
2023-03-10T00:47:49.023Z,11.80
2023-03-10T00:50:19.391Z,16.60
2023-03-10T00:52:54.031Z,5.17
2023-03-10T00:55:24.301Z,5.03
2023-03-10T00:57:55.205Z,9.83
2023-03-10T01:00:25.725Z,5.17
2023-03-10T01:02:57.291Z,7.10
2023-03-10T01:05:30.362Z,11.40
2023-03-10T01:08:01.110Z,11.97
2023-03-10T01:10:31.548Z,6.57
2023-03-10T01:13:02.856Z,4.77
2023-03-10T01:15:33.639Z,8.20
2023-03-10T01:18:09.000Z,11.90
2023-03-10T01:20:42.774Z,9.70
2023-03-10T01:23:19.351Z,10.50
2023-03-10T01:25:54.694Z,5.00
2023-03-10T01:28:25.279Z,4.63
2023-03-10T01:30:56.009Z,6.13
2023-03-10T01:33:26.700Z,1.70
2023-03-10T01:35:57.116Z,3.00
2023-03-10T01:38:27.604Z,3.37
2023-03-10T01:40:58.086Z,7.47
2023-03-10T01:43:36.201Z,12.17
2023-03-10T01:46:28.982Z,4.60
2023-03-10T01:49:09.750Z,2.30
2023-03-10T01:51:43.932Z,3.37
2023-03-10T01:54:19.419Z,6.90
2023-03-10T01:56:50.866Z,11.53
2023-03-10T01:59:21.307Z,3.03
2023-03-10T02:01:52.308Z,3.33
2023-03-10T02:04:33.265Z,2.47
2023-03-10T02:10:01.820Z,2.63
2023-03-10T02:12:34.029Z,2.23
2023-03-10T02:15:05.433Z,4.57
2023-03-10T02:17:40.361Z,2.50
2023-03-10T02:20:29.477Z,1.50
2023-03-10T02:23:00.558Z,1.73
2023-03-10T02:25:53.944Z,2.60
2023-03-10T02:28:24.601Z,1.90
2023-03-10T02:30:55.271Z,1.50
2023-03-10T02:33:29.379Z,1.07
2023-03-10T02:36:05.336Z,2.27
2023-03-10T02:38:36.322Z,2.07
2023-03-10T02:41:33.483Z,3.93
2023-03-10T02:44:09.984Z,5.83
2023-03-10T02:46:40.416Z,2.53
2023-03-10T02:49:11.360Z,2.00
2023-03-10T02:51:47.304Z,1.83
2023-03-10T02:54:17.531Z,3.60
2023-03-10T02:56:47.889Z,2.40
2023-03-10T02:59:18.322Z,1.23
2023-03-10T03:01:48.953Z,1.93
2023-03-10T03:04:19.222Z,5.13
2023-03-10T03:06:49.577Z,1.00
2023-03-10T03:09:23.750Z,2.10
2023-03-10T03:11:54.253Z,3.33
2023-03-10T03:14:24.508Z,1.47
2023-03-10T03:16:55.002Z,4.40
2023-03-10T03:19:27.641Z,3.20
2023-03-10T03:22:00.178Z,3.03
2023-03-10T03:24:31.434Z,1.10
2023-03-10T03:27:01.974Z,1.50
2023-03-10T03:29:32.702Z,1.40
2023-03-10T03:32:04.125Z,1.33
2023-03-10T03:34:39.392Z,2.50
2023-03-10T03:37:09.953Z,2.37
2023-03-10T03:39:40.620Z,2.27
2023-03-10T03:42:11.380Z,1.87
2023-03-10T03:44:42.097Z,3.33
2023-03-10T03:47:12.550Z,2.90
2023-03-10T03:49:42.931Z,1.40
2023-03-10T03:52:16.053Z,2.50
2023-03-10T03:54:46.400Z,1.73
2023-03-10T03:57:17.241Z,1.40
2023-03-10T03:59:47.429Z,2.73
2023-03-10T04:02:18.608Z,1.87
2023-03-10T04:04:48.890Z,1.47
2023-03-10T04:07:20.189Z,1.73
2023-03-10T04:09:54.408Z,2.03
2023-03-10T04:12:26.588Z,3.00
2023-03-10T04:14:56.998Z,1.20
2023-03-10T04:17:32.423Z,3.53
2023-03-10T04:20:07.412Z,1.60
2023-03-10T04:22:38.623Z,1.40
2023-03-10T04:25:14.563Z,1.40
2023-03-10T04:27:45.147Z,3.10
2023-03-10T04:30:15.462Z,1.37
2023-03-10T04:32:49.051Z,1.43
2023-03-10T04:35:19.727Z,1.60
2023-03-10T04:37:50.305Z,1.83
2023-03-10T04:40:20.955Z,1.30
2023-03-10T04:42:54.588Z,2.10
2023-03-10T04:45:25.034Z,1.43
2023-03-10T04:47:55.925Z,1.80
2023-03-10T04:50:31.507Z,1.40
2023-03-10T04:53:03.063Z,1.03
2023-03-10T04:55:33.362Z,1.13
2023-03-10T04:58:03.846Z,1.83
2023-03-10T05:00:34.713Z,1.00
2023-03-10T05:03:05.471Z,1.97
2023-03-10T05:05:37.687Z,7.00
2023-03-10T05:08:11.779Z,7.50
2023-03-10T05:10:43.178Z,1.50
2023-03-10T05:13:13.829Z,1.00
2023-03-10T05:15:49.190Z,2.20
2023-03-10T05:18:20.119Z,1.27
2023-03-10T05:20:55.265Z,0.90
2023-03-10T05:23:26.312Z,1.13
2023-03-10T05:25:57.221Z,1.77
2023-03-10T05:28:27.672Z,1.00
2023-03-10T05:30:58.244Z,0.90
2023-03-10T05:33:32.312Z,0.80
2023-03-10T05:36:04.903Z,1.00
2023-03-10T05:38:36.645Z,0.90
2023-03-10T05:41:11.943Z,0.80
2023-03-10T05:43:42.733Z,0.80
2023-03-10T05:46:14.019Z,1.00
2023-03-10T05:48:45.203Z,0.80
2023-03-10T05:51:16.233Z,0.90
2023-03-10T05:53:47.505Z,1.53
2023-03-10T05:56:18.842Z,0.90
2023-03-10T05:58:53.427Z,1.97
2023-03-10T06:01:23.912Z,1.60
2023-03-10T06:03:55.614Z,0.90
2023-03-10T06:06:31.099Z,2.93
2023-03-10T06:09:02.475Z,0.90
2023-03-10T06:11:33.024Z,5.17
2023-03-10T06:14:03.707Z,1.47
2023-03-10T06:16:34.760Z,1.23
2023-03-10T06:19:05.959Z,1.07
2023-03-10T06:21:36.353Z,7.03
2023-03-10T06:24:11.129Z,2.20
2023-03-10T06:26:41.587Z,1.37
2023-03-10T06:29:11.810Z,3.83
2023-03-10T06:31:42.283Z,1.53
2023-03-10T06:34:13.676Z,2.67
2023-03-10T06:36:44.548Z,1.40
2023-03-10T06:39:15.152Z,1.83
2023-03-10T06:41:49.339Z,8.60
2023-03-10T06:44:20.114Z,1.40
2023-03-10T06:46:50.921Z,2.83
2023-03-10T06:49:30.434Z,2.37
2023-03-10T06:52:01.696Z,1.57
2023-03-10T06:54:32.308Z,5.97
2023-03-10T06:57:04.238Z,5.63
2023-03-10T06:59:35.146Z,13.33
2023-03-10T07:02:06.314Z,2.53
2023-03-10T07:04:37.836Z,4.40
2023-03-10T07:07:08.873Z,3.37
2023-03-10T07:09:39.884Z,2.73
2023-03-10T07:12:10.224Z,3.00
2023-03-10T07:14:45.964Z,4.50
2023-03-10T07:17:17.166Z,2.40
2023-03-10T07:19:48.243Z,2.23
2023-03-10T07:22:18.782Z,2.07
2023-03-10T07:24:49.374Z,2.17
2023-03-10T07:27:19.814Z,3.30
2023-03-10T07:29:51.271Z,3.00
2023-03-10T07:32:24.273Z,5.10
2023-03-10T07:34:55.216Z,2.13
2023-03-10T07:37:25.501Z,4.23
2023-03-10T07:40:00.761Z,5.70
2023-03-10T07:42:31.538Z,3.20
2023-03-10T07:45:01.769Z,2.40
2023-03-10T07:47:32.127Z,2.10
2023-03-10T07:50:03.078Z,3.53
2023-03-10T07:52:33.869Z,1.57
2023-03-10T07:55:04.826Z,1.67
2023-03-10T07:57:40.736Z,4.57
2023-03-10T08:00:11.897Z,5.28
2023-03-10T08:02:43.021Z,7.90
2023-03-10T08:05:14.279Z,5.13
2023-03-10T08:07:45.151Z,1.50
2023-03-10T08:10:17.985Z,6.30
2023-03-10T08:12:48.301Z,1.67
2023-03-10T08:15:18.937Z,3.47
2023-03-10T08:17:49.569Z,3.73
2023-03-10T08:20:19.809Z,2.10
2023-03-10T08:22:52.380Z,2.77
2023-03-10T08:25:23.079Z,1.90
2023-03-10T08:27:53.767Z,1.53
2023-03-10T08:30:25.188Z,3.37
2023-03-10T08:32:56.541Z,2.90
2023-03-10T08:35:27.634Z,4.93
2023-03-10T08:37:58.775Z,3.83
2023-03-10T08:40:35.516Z,2.57
2023-03-10T08:43:06.643Z,3.47
2023-03-10T08:45:37.642Z,2.57
2023-03-10T08:48:12.827Z,2.50
2023-03-10T08:50:43.854Z,2.27
2023-03-10T08:53:15.165Z,9.02
2023-03-10T08:55:46.257Z,3.57
2023-03-10T08:58:16.991Z,3.20
2023-03-10T09:00:48.074Z,6.83
2023-03-10T09:03:19.416Z,3.13
2023-03-10T09:05:54.729Z,2.00
2023-03-10T09:08:27.422Z,3.80
2023-03-10T09:10:58.227Z,2.80
2023-03-10T09:13:33.608Z,3.40
2023-03-10T09:16:04.503Z,1.87
2023-03-10T09:18:35.154Z,2.50
2023-03-10T09:21:06.642Z,1.83
2023-03-10T09:23:40.557Z,2.97
2023-03-10T09:26:11.305Z,4.50
2023-03-10T09:28:41.981Z,2.00
2023-03-10T09:31:29.845Z,3.70
2023-03-10T09:34:01.991Z,2.20
2023-03-10T09:36:37.930Z,5.90
2023-03-10T09:39:08.930Z,4.17
2023-03-10T09:42:01.449Z,3.30
2023-03-10T09:44:41.962Z,2.70
2023-03-10T09:47:26.873Z,3.67
2023-03-10T09:50:26.583Z,3.17
2023-03-10T09:53:26.034Z,3.00
2023-03-10T09:55:56.926Z,3.13
2023-03-10T09:58:32.654Z,5.23
2023-03-10T10:01:05.005Z,3.90
2023-03-10T10:03:53.130Z,3.57
2023-03-10T10:06:28.472Z,1.90
2023-03-10T10:09:08.591Z,5.80
2023-03-10T10:11:39.333Z,2.47
2023-03-10T10:14:22.423Z,6.20
2023-03-10T10:17:18.462Z,5.50
2023-03-10T10:19:52.049Z,3.13
2023-03-10T10:22:26.720Z,2.33
2023-03-10T10:25:08.285Z,1.50
2023-03-10T10:27:40.645Z,4.00
2023-03-10T10:30:30.441Z,2.23
2023-03-10T10:33:06.378Z,4.17
2023-03-10T10:35:38.989Z,4.30
2023-03-10T10:38:14.023Z,3.17
2023-03-10T10:40:59.382Z,2.60
2023-03-10T10:43:30.898Z,1.00
2023-03-10T10:46:07.051Z,1.10
2023-03-10T10:48:46.319Z,2.33
2023-03-10T10:51:28.264Z,2.23
2023-03-10T10:54:03.757Z,2.40
2023-03-10T10:56:34.272Z,1.43
2023-03-10T10:59:20.739Z,2.87
2023-03-10T11:01:57.214Z,2.17
2023-03-10T11:04:40.495Z,2.80
2023-03-10T11:07:18.998Z,2.23
2023-03-10T11:09:49.560Z,2.00
2023-03-10T11:12:51.905Z,2.70
2023-03-10T11:15:32.588Z,1.10
2023-03-10T11:18:12.468Z,1.40
2023-03-10T11:21:06.474Z,1.40
2023-03-10T11:24:01.493Z,1.30
2023-03-10T11:27:12.420Z,2.33
2023-03-10T11:30:03.973Z,1.50
2023-03-10T11:33:05.619Z,3.00
2023-03-10T11:35:45.229Z,2.47
2023-03-10T11:38:21.517Z,3.93
2023-03-10T11:40:57.327Z,2.23
2023-03-10T11:43:38.443Z,2.20
2023-03-10T11:46:23.604Z,3.07
2023-03-10T11:49:08.350Z,1.93
2023-03-10T11:52:18.510Z,1.27
2023-03-10T11:55:05.011Z,1.20
2023-03-10T11:57:40.170Z,4.53
2023-03-10T12:00:28.714Z,4.77
2023-03-10T12:03:05.165Z,2.30
2023-03-10T12:05:43.245Z,12.07
2023-03-10T12:08:15.123Z,3.80
2023-03-10T12:10:46.030Z,2.67
2023-03-10T12:13:26.834Z,2.60
2023-03-10T12:16:03.478Z,2.07
2023-03-10T12:18:34.689Z,1.93
2023-03-10T12:21:38.784Z,2.37
2023-03-10T12:24:44.671Z,2.37
2023-03-10T12:27:15.843Z,1.57
2023-03-10T12:29:46.833Z,3.57
2023-03-10T12:32:42.255Z,2.43
2023-03-10T12:35:23.531Z,3.30
2023-03-10T12:38:25.416Z,5.40
2023-03-10T12:40:57.367Z,2.90
2023-03-10T12:43:46.524Z,4.07
2023-03-10T12:46:45.774Z,2.43
2023-03-10T12:49:35.076Z,3.37
2023-03-10T12:52:26.280Z,2.17
2023-03-10T12:55:20.741Z,2.27
2023-03-10T12:58:17.549Z,4.70
2023-03-10T13:00:52.799Z,2.10
2023-03-10T13:03:42.557Z,4.60
2023-03-10T13:06:13.058Z,3.07
2023-03-10T13:08:46.991Z,3.17
2023-03-10T13:12:02.969Z,3.10
2023-03-10T13:14:37.640Z,2.13
2023-03-10T13:17:21.233Z,1.70
2023-03-10T13:20:05.227Z,1.00
2023-03-10T13:22:35.549Z,2.63
2023-03-10T13:25:11.902Z,1.47
2023-03-10T13:27:42.665Z,3.43
2023-03-10T13:30:21.692Z,1.70
2023-03-10T13:32:57.763Z,1.53
2023-03-10T13:35:35.261Z,2.07
2023-03-10T13:38:32.038Z,6.27
2023-03-10T13:41:03.226Z,1.00
2023-03-10T13:43:44.510Z,3.37
2023-03-10T13:46:31.434Z,1.60
2023-03-10T13:49:05.828Z,2.60
2023-03-10T13:51:37.183Z,1.40
2023-03-10T13:54:23.871Z,2.23
2023-03-10T13:56:57.491Z,1.43
2023-03-10T13:59:31.370Z,2.43
2023-03-10T14:02:02.586Z,8.73
2023-03-10T14:04:52.905Z,2.87
2023-03-10T14:07:26.729Z,2.43
2023-03-10T14:10:04.315Z,2.23
2023-03-10T14:12:45.039Z,1.37
2023-03-10T14:15:18.331Z,1.73
2023-03-10T14:18:06.860Z,2.80
2023-03-10T14:20:42.790Z,4.30
2023-03-10T14:23:19.296Z,2.50
2023-03-10T14:25:55.096Z,1.60
2023-03-10T14:28:32.680Z,2.60
2023-03-10T14:31:05.266Z,4.57
2023-03-10T14:33:37.707Z,1.40
2023-03-10T14:36:11.360Z,2.20
2023-03-10T14:38:44.642Z,2.53
2023-03-10T14:41:22.634Z,3.10
2023-03-10T14:43:53.422Z,4.73
2023-03-10T14:46:24.452Z,3.90
2023-03-10T14:48:58.959Z,5.00
2023-03-10T14:51:35.884Z,3.70
2023-03-10T14:54:16.959Z,2.27
2023-03-10T14:56:51.736Z,2.63
2023-03-10T14:59:21.955Z,5.67
2023-03-10T15:01:56.242Z,5.67
2023-03-10T15:04:27.630Z,3.10
2023-03-10T15:06:58.062Z,3.37
2023-03-10T15:09:28.330Z,1.00
2023-03-10T15:12:04.240Z,2.33
2023-03-10T15:14:34.560Z,0.90
2023-03-10T15:17:05.028Z,1.70
2023-03-10T15:19:35.319Z,1.00
2023-03-10T15:22:05.877Z,1.00
2023-03-10T15:24:36.742Z,1.13
2023-03-10T15:27:11.618Z,1.67
2023-03-10T15:29:42.361Z,2.60
2023-03-10T15:32:12.807Z,2.40
2023-03-10T15:34:43.397Z,1.37
2023-03-10T15:37:19.103Z,0.80
2023-03-10T15:39:49.696Z,0.90
2023-03-10T15:42:20.122Z,1.00
2023-03-10T15:44:51.125Z,0.80
2023-03-10T15:47:22.068Z,0.90
2023-03-10T15:49:53.532Z,0.80
2023-03-10T15:52:23.942Z,0.80
2023-03-10T15:54:58.706Z,0.80
2023-03-10T15:57:29.141Z,1.20
2023-03-10T15:59:59.455Z,0.80
2023-03-10T16:02:32.608Z,0.90
2023-03-10T16:05:05.299Z,1.10
2023-03-10T16:07:36.042Z,0.90
2023-03-10T16:10:09.336Z,1.33
2023-03-10T16:12:39.956Z,0.90
2023-03-10T16:15:11.350Z,0.90
2023-03-10T16:17:42.774Z,0.90
2023-03-10T16:20:18.454Z,0.90
2023-03-10T16:22:48.947Z,1.00
2023-03-10T16:25:21.182Z,1.00
2023-03-10T16:27:56.458Z,1.00
2023-03-10T16:30:27.018Z,4.40
2023-03-10T16:33:00.028Z,2.70
2023-03-10T16:35:30.905Z,0.80
2023-03-10T16:38:01.348Z,1.43
2023-03-10T16:40:31.911Z,1.10
2023-03-10T16:43:02.361Z,1.00
2023-03-10T16:45:36.214Z,0.97
2023-03-10T16:48:06.530Z,1.50
2023-03-10T16:50:37.440Z,1.77
2023-03-10T16:53:08.298Z,1.87
2023-03-10T16:55:39.077Z,1.40
2023-03-10T16:58:09.521Z,2.53
2023-03-10T17:00:40.276Z,1.77
2023-03-10T17:03:13.315Z,1.17
2023-03-10T17:05:44.019Z,0.97
2023-03-10T17:08:14.780Z,1.13
2023-03-10T17:10:45.499Z,1.00
2023-03-10T17:13:15.894Z,0.80
2023-03-10T17:15:46.214Z,0.90
2023-03-10T17:18:18.766Z,0.90
2023-03-10T17:20:50.819Z,1.73
2023-03-10T17:23:22.938Z,1.00
2023-03-10T17:25:54.173Z,0.90
2023-03-10T17:28:30.537Z,1.47
2023-03-10T17:31:19.711Z,0.90
2023-03-10T17:33:49.933Z,1.10
2023-03-10T17:36:20.601Z,1.03
2023-03-10T17:38:52.178Z,1.80
2023-03-10T17:41:23.396Z,2.50
2023-03-10T17:43:56.997Z,1.20
2023-03-10T17:46:29.279Z,1.00
2023-03-10T17:49:00.338Z,0.90
2023-03-10T17:51:35.745Z,0.80
2023-03-10T17:54:06.703Z,0.87
2023-03-10T17:56:37.720Z,0.80
2023-03-10T17:59:10.341Z,0.80
2023-03-10T18:01:50.008Z,1.20
2023-03-10T18:04:21.061Z,0.80
2023-03-10T18:06:52.168Z,1.20
2023-03-10T18:09:23.005Z,0.80
2023-03-10T18:11:56.451Z,0.80
2023-03-10T18:14:27.083Z,0.80
2023-03-10T18:16:58.148Z,0.80
2023-03-10T18:19:28.462Z,0.80
2023-03-10T18:21:59.330Z,0.80
2023-03-10T18:24:34.404Z,0.80
2023-03-10T18:27:05.226Z,0.80
2023-03-10T18:29:35.355Z,0.80
2023-03-10T18:32:06.350Z,0.80
2023-03-10T18:34:37.274Z,0.97
2023-03-10T18:37:08.167Z,0.90
2023-03-10T18:39:41.194Z,0.77
2023-03-10T18:42:15.834Z,0.80
2023-03-10T18:44:46.757Z,0.80
2023-03-10T18:47:18.244Z,2.10
2023-03-10T18:49:54.186Z,1.00
2023-03-10T18:52:25.061Z,0.90
2023-03-10T18:54:56.214Z,0.80
2023-03-10T18:57:27.503Z,0.80
2023-03-10T19:00:00.481Z,0.90
2023-03-10T19:02:31.765Z,0.80
2023-03-10T19:05:04.510Z,0.80
2023-03-10T19:07:36.399Z,0.80
2023-03-10T19:10:10.721Z,0.80
2023-03-10T19:12:41.760Z,1.80
2023-03-10T19:15:17.015Z,0.70
2023-03-10T19:17:48.017Z,0.83
2023-03-10T19:20:18.443Z,0.93
2023-03-10T19:22:53.845Z,0.73
2023-03-10T19:25:24.593Z,1.10
2023-03-10T19:27:55.063Z,0.80
2023-03-10T19:30:25.680Z,0.90
2023-03-10T19:32:56.205Z,0.90
2023-03-10T19:35:26.862Z,0.90
2023-03-10T19:37:57.453Z,0.80
2023-03-10T19:40:33.408Z,0.83
2023-03-10T19:43:04.046Z,0.80
2023-03-10T19:45:35.431Z,0.70
2023-03-10T19:48:09.956Z,0.73
2023-03-10T19:50:41.306Z,0.80
2023-03-10T19:53:11.604Z,0.77
2023-03-10T19:55:42.796Z,0.80
2023-03-10T19:58:13.703Z,0.80
2023-03-10T20:00:45.669Z,1.10
2023-03-10T20:03:16.877Z,1.10
2023-03-10T20:05:50.774Z,1.00
2023-03-10T20:08:23.121Z,1.00
2023-03-10T20:10:54.806Z,1.00
2023-03-10T20:13:31.695Z,1.00
2023-03-10T20:16:02.722Z,1.20
2023-03-10T20:18:33.275Z,1.00
2023-03-10T20:21:08.814Z,3.57
2023-03-10T20:23:39.863Z,1.40
2023-03-10T20:26:10.647Z,4.03
2023-03-10T20:28:41.186Z,1.30
2023-03-10T20:31:20.433Z,0.90
2023-03-10T20:33:51.713Z,1.07
2023-03-10T20:36:22.732Z,1.03
2023-03-10T20:38:53.613Z,1.20
2023-03-10T20:41:24.365Z,0.90
2023-03-10T20:43:54.960Z,1.20
2023-03-10T20:46:31.039Z,1.30
2023-03-10T20:49:01.916Z,1.80
2023-03-10T20:51:32.483Z,1.10
2023-03-10T20:54:08.034Z,3.33
2023-03-10T20:56:39.376Z,1.60
2023-03-10T20:59:10.333Z,1.70
2023-03-10T21:01:41.784Z,2.00
2023-03-10T21:04:12.973Z,2.03
2023-03-10T21:06:43.706Z,2.33
2023-03-10T21:09:15.747Z,2.50
2023-03-10T21:11:49.520Z,2.50
2023-03-10T21:14:20.249Z,2.90
2023-03-10T21:16:51.338Z,3.10
2023-03-10T21:19:27.165Z,2.50
2023-03-10T21:21:58.008Z,2.20
2023-03-10T21:24:28.435Z,3.23
2023-03-10T21:27:00.406Z,3.50
2023-03-10T21:29:32.887Z,3.70
2023-03-10T21:32:03.536Z,3.17
2023-03-10T21:34:34.168Z,3.33
2023-03-10T21:37:08.530Z,3.57
2023-03-10T21:39:39.047Z,3.90
2023-03-10T21:42:12.915Z,2.87
2023-03-10T21:44:48.413Z,3.20
2023-03-10T21:47:19.279Z,2.23
2023-03-10T21:49:49.913Z,4.10
2023-03-10T21:52:20.746Z,3.30
2023-03-10T21:54:51.792Z,3.27
2023-03-10T21:57:23.377Z,3.00
2023-03-10T21:59:53.936Z,2.83
2023-03-10T22:02:27.989Z,2.87
2023-03-10T22:04:58.941Z,4.30
2023-03-10T22:07:29.882Z,3.47
2023-03-10T22:10:06.697Z,2.80
2023-03-10T22:12:38.150Z,2.67
2023-03-10T22:15:14.769Z,2.67
2023-03-10T22:17:48.277Z,2.60
2023-03-10T22:20:21.855Z,6.50
2023-03-10T22:22:53.128Z,1.83
2023-03-10T22:25:28.473Z,2.00
2023-03-10T22:27:59.110Z,2.03
2023-03-10T22:30:30.947Z,1.87
2023-03-10T22:33:08.695Z,1.53
2023-03-10T22:35:39.946Z,1.77
2023-03-10T22:38:12.865Z,1.57
2023-03-10T22:40:48.233Z,1.90
2023-03-10T22:43:19.004Z,1.83
2023-03-10T22:45:49.705Z,3.63
2023-03-10T22:48:20.352Z,2.17
2023-03-10T22:50:51.487Z,1.70
2023-03-10T22:53:22.097Z,1.70
2023-03-10T22:55:52.595Z,1.80
2023-03-10T22:58:27.870Z,1.50
2023-03-10T23:00:58.491Z,2.10
2023-03-10T23:03:29.900Z,2.00
2023-03-10T23:06:05.736Z,1.97
2023-03-10T23:08:37.116Z,2.37
2023-03-10T23:11:12.729Z,2.10
2023-03-10T23:13:57.746Z,1.80
2023-03-10T23:16:35.973Z,1.90
2023-03-10T23:19:08.570Z,2.17
2023-03-10T23:21:39.611Z,1.50
2023-03-10T23:24:10.598Z,2.10
2023-03-10T23:26:41.273Z,2.00
2023-03-10T23:29:13.872Z,1.50
2023-03-10T23:31:44.152Z,1.43
2023-03-10T23:34:14.491Z,1.47
2023-03-10T23:36:48.098Z,1.43
2023-03-10T23:39:19.151Z,1.60
2023-03-10T23:41:49.504Z,1.57
2023-03-10T23:44:20.401Z,1.97
2023-03-10T23:46:51.605Z,2.10
2023-03-10T23:49:21.888Z,1.60
2023-03-10T23:51:53.748Z,1.80
2023-03-10T23:54:29.495Z,2.07
2023-03-10T23:56:59.970Z,2.00
2023-03-10T23:59:30.582Z,2.60
